createdAt,value
2018-11-02T00:02:09.914Z,228.25
2018-11-02T00:04:42.276Z,239.50
2018-11-02T00:07:14.849Z,247.25
2018-11-02T00:10:01.583Z,228.25
2018-11-02T00:12:33.648Z,232.00
2018-11-02T00:15:05.961Z,233.25
2018-11-02T00:17:38.243Z,234.00
2018-11-02T00:20:10.580Z,222.50
2018-11-02T00:22:42.596Z,242.75
2018-11-02T00:25:15.055Z,214.50
2018-11-02T00:27:47.377Z,241.25
2018-11-02T00:30:19.299Z,231.75
2018-11-02T00:35:20.608Z,205.25
2018-11-02T00:37:52.779Z,235.25
2018-11-02T00:40:25.423Z,226.25
2018-11-02T00:42:57.466Z,229.75
2018-11-02T00:45:29.571Z,235.50
2018-11-02T00:48:01.572Z,246.75
2018-11-02T00:50:33.835Z,245.25
2018-11-02T00:53:06.149Z,284.50
2018-11-02T00:55:39.011Z,265.25
2018-11-02T00:58:11.402Z,275.50
2018-11-02T01:00:43.599Z,270.25
2018-11-02T01:03:16.866Z,279.00
2018-11-02T01:05:48.987Z,264.00
2018-11-02T01:08:21.026Z,281.00
2018-11-02T01:10:52.948Z,298.75
2018-11-02T01:15:38.125Z,269.00
2018-11-02T01:18:10.400Z,279.75
2018-11-02T01:20:42.435Z,263.50
2018-11-02T01:23:14.534Z,282.50
2018-11-02T01:25:47.459Z,273.75
2018-11-02T01:28:19.629Z,266.00
2018-11-02T01:30:51.829Z,273.75
2018-11-02T01:33:28.856Z,277.75
2018-11-02T01:36:01.044Z,280.00
2018-11-02T01:38:32.906Z,276.25
2018-11-02T01:41:05.118Z,219.00
2018-11-02T01:43:37.382Z,237.75
2018-11-02T01:46:09.471Z,245.00
2018-11-02T01:48:41.734Z,241.75
2018-11-02T01:51:13.936Z,273.00
2018-11-02T01:53:46.076Z,283.25
2018-11-02T01:56:18.608Z,276.50
2018-11-02T01:58:51.071Z,291.75
2018-11-02T02:01:23.265Z,298.75
2018-11-02T02:03:55.537Z,283.50
2018-11-02T02:06:28.556Z,277.00
2018-11-02T02:09:00.711Z,277.75
2018-11-02T02:11:32.653Z,264.00
2018-11-02T02:14:04.866Z,275.00
2018-11-02T02:16:37.127Z,289.75
2018-11-02T02:19:09.262Z,293.25
2018-11-02T02:21:41.490Z,277.25
2018-11-02T02:24:13.559Z,294.75
2018-11-02T02:26:46.131Z,278.75
2018-11-02T02:29:17.658Z,261.75
2018-11-02T02:31:49.032Z,276.25
2018-11-02T02:34:20.882Z,272.50
2018-11-02T02:36:52.785Z,297.00
2018-11-02T02:39:25.162Z,282.50
2018-11-02T02:41:57.437Z,270.50
2018-11-02T02:44:29.752Z,277.50
2018-11-02T02:47:02.199Z,272.25
2018-11-02T02:49:34.730Z,259.75
2018-11-02T02:52:07.230Z,261.75
2018-11-02T02:54:39.594Z,270.25
2018-11-02T02:57:12.461Z,255.75
2018-11-02T02:59:45.267Z,266.25
2018-11-02T03:02:17.828Z,247.75
2018-11-02T03:04:51.045Z,259.25
2018-11-02T03:07:23.171Z,246.75
2018-11-02T03:09:55.694Z,229.00
2018-11-02T03:12:27.781Z,245.75
2018-11-02T03:14:59.880Z,234.50
2018-11-02T03:17:32.166Z,224.50
2018-11-02T03:20:04.939Z,211.75
2018-11-02T03:22:37.852Z,181.20
2018-11-02T03:25:12.295Z,192.60
2018-11-02T03:27:46.424Z,176.40
2018-11-02T03:30:19.222Z,181.80
2018-11-02T03:32:51.397Z,144.60
2018-11-02T03:35:23.561Z,157.00
2018-11-02T03:37:55.585Z,164.80
2018-11-02T03:40:28.804Z,145.40
2018-11-02T03:43:00.954Z,172.80
2018-11-02T03:45:32.924Z,165.40
2018-11-02T03:48:05.004Z,162.00
2018-11-02T03:50:36.938Z,161.60
2018-11-02T03:53:09.043Z,149.60
2018-11-02T03:55:41.078Z,148.20
2018-11-02T03:58:13.676Z,145.80
2018-11-02T04:07:47.892Z,127.60
2018-11-02T04:10:20.210Z,146.00
2018-11-02T04:12:52.429Z,140.40
2018-11-02T04:15:24.074Z,157.40
2018-11-02T04:17:55.975Z,168.60
2018-11-02T04:20:28.237Z,152.60
2018-11-02T04:23:00.757Z,169.40
2018-11-02T04:25:32.973Z,169.40
2018-11-02T04:28:05.512Z,168.80
2018-11-02T04:30:37.850Z,181.60
2018-11-02T04:33:09.718Z,179.20
2018-11-02T04:35:41.664Z,180.60
2018-11-02T04:38:13.943Z,178.80
2018-11-02T04:41:57.300Z,175.40
2018-11-02T04:44:29.751Z,172.40
2018-11-02T04:47:01.616Z,162.40
2018-11-02T04:49:34.057Z,173.80
2018-11-02T04:52:06.237Z,175.00
2018-11-02T04:54:38.523Z,167.20
2018-11-02T04:57:10.426Z,162.20
2018-11-02T04:59:42.808Z,157.60
2018-11-02T05:02:15.225Z,183.20
2018-11-02T05:05:18.334Z,133.40
2018-11-02T05:07:51.617Z,151.40
2018-11-02T05:10:23.959Z,134.40
2018-11-02T05:12:56.293Z,145.80
2018-11-02T05:15:28.527Z,146.00
2018-11-02T05:18:00.594Z,134.60
2018-11-02T05:20:32.741Z,150.80
2018-11-02T05:23:04.630Z,155.20
2018-11-02T05:25:36.786Z,149.20
2018-11-02T05:28:09.152Z,149.80
2018-11-02T05:30:40.998Z,148.40
2018-11-02T05:33:13.581Z,143.20
2018-11-02T05:35:45.826Z,150.80
2018-11-02T05:38:17.929Z,158.00
2018-11-02T05:40:50.590Z,162.60
2018-11-02T05:43:22.385Z,157.40
2018-11-02T05:45:54.615Z,162.40
2018-11-02T05:48:26.699Z,138.40
2018-11-02T05:50:58.613Z,146.40
2018-11-02T05:53:30.633Z,143.60
2018-11-02T05:56:02.486Z,149.60
2018-11-02T05:58:34.535Z,153.80
2018-11-02T06:01:06.912Z,144.20
2018-11-02T06:06:08.156Z,121.80
2018-11-02T06:08:41.436Z,132.00
2018-11-02T06:11:13.680Z,137.80
2018-11-02T06:13:45.377Z,131.80
2018-11-02T06:16:17.455Z,130.00
2018-11-02T06:18:50.189Z,128.40
2018-11-02T06:21:22.689Z,128.20
2018-11-02T06:23:54.796Z,131.40
2018-11-02T06:26:27.236Z,132.20
2018-11-02T06:28:59.239Z,137.60
2018-11-02T06:31:31.383Z,134.60
2018-11-02T06:34:04.070Z,129.40
2018-11-02T06:36:35.904Z,128.20
2018-11-02T06:39:10.249Z,128.00
2018-11-02T06:41:42.268Z,124.60
2018-11-02T06:44:14.338Z,114.60
2018-11-02T06:46:46.466Z,120.40
2018-11-02T06:49:18.707Z,124.40
2018-11-02T06:57:43.193Z,111.20
2018-11-02T07:00:17.536Z,127.60
2018-11-02T07:02:49.872Z,120.00
2018-11-02T07:05:22.530Z,104.00
2018-11-02T07:07:55.731Z,115.00
2018-11-02T07:10:28.199Z,115.20
2018-11-02T07:13:00.401Z,122.20
2018-11-02T07:15:32.378Z,113.40
2018-11-02T07:18:04.604Z,113.20
2018-11-02T07:20:36.482Z,132.40
2018-11-02T07:23:09.270Z,95.40
2018-11-02T07:25:41.142Z,102.20
2018-11-02T07:28:13.567Z,105.20
2018-11-02T07:30:45.277Z,98.80
2018-11-02T07:33:17.252Z,111.00
2018-11-02T07:35:50.156Z,104.20
2018-11-02T07:38:23.178Z,104.20
2018-11-02T07:40:55.522Z,91.20
2018-11-02T07:43:27.706Z,96.20
2018-11-02T07:45:59.802Z,104.60
2018-11-02T07:48:32.185Z,91.60
2018-11-02T07:51:04.103Z,91.80
2018-11-02T07:53:36.059Z,90.00
2018-11-02T07:56:08.025Z,96.40
2018-11-02T07:58:40.288Z,96.60
2018-11-02T08:01:12.316Z,99.00
2018-11-02T08:03:44.470Z,99.60
2018-11-02T08:06:16.995Z,95.80
2018-11-02T08:08:49.017Z,87.80
2018-11-02T08:11:21.598Z,89.20
2018-11-02T08:13:53.816Z,87.20
2018-11-02T08:16:25.886Z,93.80
2018-11-02T08:18:58.259Z,96.20
2018-11-02T08:21:31.295Z,96.00
2018-11-02T08:27:33.396Z,90.20
2018-11-02T08:30:05.651Z,101.00
2018-11-02T08:49:55.207Z,85.80
2018-11-02T08:52:28.418Z,93.80
2018-11-02T08:55:00.598Z,91.00
2018-11-02T08:57:32.724Z,87.60
2018-11-02T09:00:04.948Z,93.00
2018-11-02T09:02:37.047Z,91.20
2018-11-02T09:05:09.619Z,94.00
2018-11-02T09:07:41.815Z,92.80
2018-11-02T09:11:17.010Z,95.40
2018-11-02T09:13:48.912Z,90.00
2018-11-02T09:16:21.774Z,93.60
2018-11-02T09:18:53.815Z,87.40
2018-11-02T09:21:25.930Z,93.60
2018-11-02T09:23:58.458Z,86.40
2018-11-02T09:26:30.496Z,85.80
2018-11-02T09:29:02.410Z,94.40
2018-11-02T09:31:34.461Z,87.80
2018-11-02T09:34:06.271Z,90.60
2018-11-02T09:36:38.358Z,86.80
2018-11-02T09:39:13.348Z,88.00
2018-11-02T09:41:45.922Z,90.00
2018-11-02T09:44:17.750Z,88.40
2018-11-02T09:46:49.840Z,90.20
2018-11-02T09:49:21.735Z,88.60
2018-11-02T09:51:54.723Z,89.40
2018-11-02T09:54:27.203Z,88.20
2018-11-02T09:56:59.268Z,86.20
2018-11-02T09:59:30.974Z,86.60
2018-11-02T10:02:03.784Z,82.80
2018-11-02T10:04:35.779Z,84.80
2018-11-02T10:07:07.930Z,87.00
2018-11-02T10:09:40.013Z,86.00
2018-11-02T10:12:12.273Z,86.60
2018-11-02T10:14:44.269Z,82.80
2018-11-02T10:17:16.293Z,88.60
2018-11-02T10:19:48.462Z,86.20
2018-11-02T10:22:20.603Z,86.40
2018-11-02T10:24:53.272Z,84.20
2018-11-02T10:27:25.986Z,87.40
2018-11-02T10:29:58.586Z,86.20
2018-11-02T10:32:30.943Z,81.80
2018-11-02T10:35:03.651Z,86.00
2018-11-02T10:37:36.435Z,83.40
2018-11-02T10:40:11.302Z,87.20
2018-11-02T10:42:44.455Z,83.80
2018-11-02T10:45:17.496Z,82.60
2018-11-02T10:47:50.611Z,84.80
2018-11-02T10:50:22.529Z,84.20
2018-11-02T10:52:54.682Z,82.20
2018-11-02T10:55:27.358Z,85.00
2018-11-02T10:58:03.169Z,84.80
2018-11-02T11:55:10.005Z,80.40
2018-11-02T11:57:42.434Z,79.40
2018-11-02T12:00:16.227Z,86.20
2018-11-02T12:02:48.869Z,87.60
2018-11-02T12:05:22.228Z,89.80
2018-11-02T12:07:54.464Z,83.40
2018-11-02T12:10:26.407Z,82.40
2018-11-02T12:12:58.433Z,103.00
2018-11-02T12:15:30.432Z,83.80
2018-11-02T12:18:03.054Z,83.60
2018-11-02T12:20:35.263Z,86.20
2018-11-02T12:23:07.551Z,85.00
2018-11-02T12:25:39.547Z,83.20
2018-11-02T12:28:12.373Z,83.40
2018-11-02T12:30:44.340Z,83.80
2018-11-02T12:33:16.467Z,82.40
2018-11-02T12:35:48.452Z,87.00
2018-11-02T12:38:23.866Z,85.40
2018-11-02T12:40:55.950Z,87.20
2018-11-02T12:43:28.365Z,88.00
2018-11-02T12:46:00.709Z,84.00
2018-11-02T12:48:33.185Z,83.80
2018-11-02T12:51:05.153Z,90.00
2018-11-02T12:53:37.015Z,92.40
2018-11-02T12:56:10.491Z,84.40
2018-11-02T12:58:43.136Z,88.80
2018-11-02T13:01:15.209Z,83.60
2018-11-02T13:03:47.114Z,94.40
2018-11-02T13:06:19.800Z,98.60
2018-11-02T13:08:52.004Z,92.40
2018-11-02T13:11:24.576Z,110.40
2018-11-02T13:13:56.761Z,109.00
2018-11-02T13:16:28.605Z,102.40
2018-11-02T13:19:01.187Z,111.00
2018-11-02T13:21:33.210Z,114.20
2018-11-02T13:24:05.509Z,111.40
2018-11-02T13:26:37.693Z,109.80
2018-11-02T13:29:10.211Z,135.20
2018-11-02T13:31:42.673Z,134.80
2018-11-02T13:34:14.926Z,140.60
2018-11-02T13:36:47.208Z,159.60
2018-11-02T13:39:19.263Z,162.40
2018-11-02T13:41:51.541Z,174.50
2018-11-02T13:44:23.529Z,165.25
2018-11-02T13:46:55.572Z,174.50
2018-11-02T13:49:27.837Z,181.00
2018-11-02T13:51:59.738Z,180.25
2018-11-02T13:54:31.866Z,188.00
2018-11-02T13:57:04.362Z,195.00
2018-11-02T13:59:36.904Z,188.00
2018-11-02T14:02:09.667Z,185.50
2018-11-02T14:04:41.561Z,196.50
2018-11-02T14:07:14.596Z,187.75
2018-11-02T14:09:46.803Z,175.75
2018-11-02T14:12:18.879Z,171.00
2018-11-02T14:14:51.180Z,188.25
2018-11-02T14:17:22.925Z,179.50
2018-11-02T14:19:54.993Z,191.00
2018-11-02T14:22:27.073Z,188.00
2018-11-02T14:24:59.222Z,195.00
2018-11-02T14:27:31.103Z,196.75
2018-11-02T14:30:03.741Z,183.50
2018-11-02T14:32:40.491Z,198.25
2018-11-02T14:35:12.649Z,195.75
2018-11-02T14:40:25.978Z,195.75
2018-11-02T14:42:58.253Z,222.00
2018-11-02T14:45:30.522Z,316.75
2018-11-02T14:48:02.980Z,304.50
2018-11-02T14:50:35.132Z,337.75
2018-11-02T14:53:07.024Z,300.00
2018-11-02T14:55:39.794Z,309.25
2018-11-02T14:58:12.094Z,299.50
2018-11-02T15:00:44.883Z,309.75
2018-11-02T15:03:16.805Z,280.25
2018-11-02T15:05:48.785Z,270.50
2018-11-02T15:08:20.634Z,240.25
2018-11-02T15:10:52.549Z,226.25
2018-11-02T15:13:24.680Z,237.50
2018-11-02T15:15:57.054Z,225.25
2018-11-02T15:18:29.189Z,217.75
2018-11-02T15:21:01.306Z,213.25
2018-11-02T15:23:33.303Z,196.25
2018-11-02T15:26:05.510Z,209.00
2018-11-02T15:28:37.563Z,196.75
2018-11-02T15:31:10.106Z,199.50
2018-11-02T15:33:42.474Z,207.50
2018-11-02T15:36:14.823Z,207.25
2018-11-02T15:38:47.314Z,207.25
2018-11-02T15:41:19.513Z,199.25
2018-11-02T15:43:51.748Z,188.25
2018-11-02T15:46:24.563Z,184.25
2018-11-02T15:48:56.469Z,185.25
2018-11-02T15:51:28.873Z,176.50
2018-11-02T15:54:00.580Z,148.60
2018-11-02T15:56:32.761Z,163.40
2018-11-02T15:59:05.025Z,158.00
2018-11-02T16:01:37.733Z,156.40
2018-11-02T16:04:10.282Z,166.20
2018-11-02T16:06:42.521Z,182.25
2018-11-02T16:09:16.734Z,177.00
2018-11-02T16:11:49.067Z,169.80
2018-11-02T16:14:21.163Z,181.00
2018-11-02T16:16:53.527Z,180.40
2018-11-02T16:19:25.570Z,175.00
2018-11-02T16:21:57.833Z,177.25
2018-11-02T16:24:30.020Z,153.60
2018-11-02T16:27:02.051Z,152.00
2018-11-02T16:29:34.113Z,168.80
2018-11-02T16:32:06.969Z,164.20
2018-11-02T16:34:39.053Z,160.00
2018-11-02T16:37:11.428Z,159.60
2018-11-02T16:39:43.346Z,158.80
2018-11-02T16:42:15.779Z,166.40
2018-11-02T16:44:47.999Z,155.00
2018-11-02T16:47:20.285Z,154.60
2018-11-02T16:49:52.367Z,165.60
2018-11-02T16:52:24.742Z,147.80
2018-11-02T16:54:57.047Z,152.60
2018-11-02T16:57:29.247Z,148.60
2018-11-02T17:00:02.697Z,148.00
2018-11-02T17:02:36.340Z,154.60
2018-11-02T17:05:09.016Z,155.40
2018-11-02T17:07:41.723Z,157.60
2018-11-02T17:10:15.282Z,152.60
2018-11-02T17:12:47.715Z,149.20
2018-11-02T17:15:19.777Z,140.80
2018-11-02T17:17:52.025Z,112.80
2018-11-02T20:23:31.624Z,76.40
2018-11-02T20:26:04.008Z,81.80
2018-11-02T20:28:36.306Z,85.00
2018-11-02T20:31:08.171Z,86.80
2018-11-02T20:33:40.051Z,89.00
2018-11-02T20:39:13.310Z,77.00
2018-11-02T20:41:45.572Z,88.40
2018-11-02T20:44:17.783Z,86.20
2018-11-02T20:46:50.044Z,84.40
2018-11-02T20:49:22.184Z,89.40
2018-11-02T20:51:53.992Z,86.20
2018-11-02T20:54:26.167Z,86.60
2018-11-02T20:59:18.537Z,77.20
2018-11-02T21:01:50.996Z,78.00
2018-11-02T21:04:23.286Z,85.00
2018-11-02T21:06:55.745Z,83.80
2018-11-02T21:09:27.963Z,83.20
2018-11-02T21:11:59.944Z,80.20
2018-11-02T21:14:32.331Z,83.80
2018-11-02T21:17:04.422Z,83.40
2018-11-02T21:19:36.879Z,85.80
2018-11-02T21:22:11.770Z,81.60
2018-11-02T21:24:43.919Z,81.00
2018-11-02T21:27:16.449Z,83.20
2018-11-02T21:29:48.817Z,85.00
2018-11-02T21:32:20.919Z,82.20
2018-11-02T21:34:52.938Z,80.80
2018-11-02T21:37:25.072Z,80.20
2018-11-02T21:39:57.346Z,81.80
2018-11-02T21:42:29.589Z,80.40
2018-11-02T21:45:01.815Z,81.60
2018-11-02T21:47:33.903Z,82.80
2018-11-02T21:50:06.408Z,82.60
2018-11-02T21:52:38.415Z,74.80
2018-11-02T21:55:10.754Z,81.60
2018-11-02T21:57:43.211Z,82.20
2018-11-02T22:00:20.400Z,81.00
2018-11-02T22:02:52.511Z,81.20
2018-11-02T22:05:24.651Z,84.60
2018-11-02T22:07:56.554Z,78.20
2018-11-02T22:10:28.646Z,80.20
2018-11-02T22:13:00.576Z,79.40
2018-11-02T22:15:32.786Z,80.80
2018-11-02T22:18:04.714Z,77.80
2018-11-02T22:20:36.859Z,81.80
2018-11-02T22:23:09.042Z,80.60
2018-11-02T22:25:41.372Z,82.40
2018-11-02T22:28:14.101Z,84.60
2018-11-02T22:30:46.329Z,83.80
2018-11-02T22:33:18.428Z,79.80
2018-11-02T22:35:50.619Z,83.60
2018-11-02T22:38:22.656Z,76.40
2018-11-02T22:40:54.912Z,79.00
2018-11-02T22:43:27.196Z,79.40
2018-11-02T22:45:59.520Z,81.40
2018-11-02T22:48:31.743Z,80.40
2018-11-02T22:51:03.783Z,84.40
2018-11-02T22:53:35.904Z,72.40
2018-11-02T22:56:08.052Z,78.20
2018-11-02T22:58:40.331Z,79.60
2018-11-02T23:01:17.460Z,81.00
2018-11-02T23:03:49.812Z,82.60
2018-11-02T23:06:21.975Z,79.40
2018-11-02T23:08:54.763Z,82.40
2018-11-02T23:11:26.913Z,79.60
2018-11-02T23:13:59.271Z,79.60
2018-11-02T23:16:31.584Z,86.20
2018-11-02T23:19:03.699Z,81.80
2018-11-02T23:21:35.787Z,85.20
2018-11-02T23:24:08.141Z,85.80
2018-11-02T23:26:40.293Z,85.20
2018-11-02T23:29:13.095Z,81.80
2018-11-02T23:34:16.923Z,79.80
2018-11-02T23:36:48.567Z,82.60
2018-11-02T23:39:20.659Z,83.40
2018-11-02T23:41:52.663Z,84.80
2018-11-02T23:44:24.771Z,84.20
2018-11-02T23:46:56.854Z,84.40
2018-11-02T23:49:29.080Z,87.80
2018-11-02T23:52:01.200Z,84.00
2018-11-02T23:54:33.280Z,85.20
2018-11-02T23:57:05.412Z,87.80
2018-11-02T23:59:38.676Z,89.20
